sensor_id;sensor_type;location;lat;lon;timestamp;P1;durP1;ratioP1;P2;durP2;ratioP2
8978;SDS011;4524;51.364;5.448;2024-02-16T00:01:54;6.05;;;2.47;;
8978;SDS011;4524;51.364;5.448;2024-02-16T00:04:22;5.65;;;2.20;;
8978;SDS011;4524;51.364;5.448;2024-02-16T00:06:50;5.15;;;2.00;;
8978;SDS011;4524;51.364;5.448;2024-02-16T00:09:18;5.32;;;3.83;;
8978;SDS011;4524;51.364;5.448;2024-02-16T00:11:48;6.97;;;4.65;;
8978;SDS011;4524;51.364;5.448;2024-02-16T00:14:17;6.82;;;3.90;;
8978;SDS011;4524;51.364;5.448;2024-02-16T00:16:45;3.33;;;1.75;;
8978;SDS011;4524;51.364;5.448;2024-02-16T00:19:13;7.03;;;2.03;;
8978;SDS011;4524;51.364;5.448;2024-02-16T00:21:41;3.42;;;1.40;;
8978;SDS011;4524;51.364;5.448;2024-02-16T00:24:09;6.32;;;2.00;;
8978;SDS011;4524;51.364;5.448;2024-02-16T00:26:37;3.92;;;1.80;;
8978;SDS011;4524;51.364;5.448;2024-02-16T00:29:07;4.25;;;2.22;;
8978;SDS011;4524;51.364;5.448;2024-02-16T00:31:36;3.92;;;1.70;;
8978;SDS011;4524;51.364;5.448;2024-02-16T00:34:04;4.78;;;1.60;;
8978;SDS011;4524;51.364;5.448;2024-02-16T00:36:32;3.45;;;1.95;;
8978;SDS011;4524;51.364;5.448;2024-02-16T00:39:00;4.45;;;1.90;;
8978;SDS011;4524;51.364;5.448;2024-02-16T00:41:29;2.88;;;1.65;;
8978;SDS011;4524;51.364;5.448;2024-02-16T00:43:57;6.07;;;2.05;;
8978;SDS011;4524;51.364;5.448;2024-02-16T00:46:27;3.53;;;1.67;;
8978;SDS011;4524;51.364;5.448;2024-02-16T00:48:55;3.40;;;1.65;;
8978;SDS011;4524;51.364;5.448;2024-02-16T00:51:23;3.60;;;1.77;;
8978;SDS011;4524;51.364;5.448;2024-02-16T00:53:52;2.97;;;1.67;;
8978;SDS011;4524;51.364;5.448;2024-02-16T00:56:20;5.22;;;2.00;;
8978;SDS011;4524;51.364;5.448;2024-02-16T00:58:49;5.00;;;1.88;;
8978;SDS011;4524;51.364;5.448;2024-02-16T01:01:17;3.78;;;1.60;;
8978;SDS011;4524;51.364;5.448;2024-02-16T01:03:46;5.30;;;1.90;;
8978;SDS011;4524;51.364;5.448;2024-02-16T01:06:13;3.20;;;1.60;;
8978;SDS011;4524;51.364;5.448;2024-02-16T01:08:41;3.25;;;1.77;;
8978;SDS011;4524;51.364;5.448;2024-02-16T01:11:09;5.72;;;1.98;;
8978;SDS011;4524;51.364;5.448;2024-02-16T01:13:38;4.97;;;2.70;;
8978;SDS011;4524;51.364;5.448;2024-02-16T01:16:06;4.78;;;2.13;;
8978;SDS011;4524;51.364;5.448;2024-02-16T01:18:34;6.78;;;1.73;;
8978;SDS011;4524;51.364;5.448;2024-02-16T01:21:05;3.55;;;1.95;;
8978;SDS011;4524;51.364;5.448;2024-02-16T01:23:33;4.18;;;1.95;;
8978;SDS011;4524;51.364;5.448;2024-02-16T01:26:01;4.10;;;1.75;;
8978;SDS011;4524;51.364;5.448;2024-02-16T01:28:30;4.72;;;2.20;;
8978;SDS011;4524;51.364;5.448;2024-02-16T01:30:58;3.58;;;1.75;;
8978;SDS011;4524;51.364;5.448;2024-02-16T01:33:26;4.30;;;2.42;;
8978;SDS011;4524;51.364;5.448;2024-02-16T01:35:56;4.90;;;2.13;;
8978;SDS011;4524;51.364;5.448;2024-02-16T01:38:25;7.85;;;2.22;;
8978;SDS011;4524;51.364;5.448;2024-02-16T01:40:53;5.15;;;1.75;;
8978;SDS011;4524;51.364;5.448;2024-02-16T01:43:21;4.00;;;1.83;;
8978;SDS011;4524;51.364;5.448;2024-02-16T01:45:49;3.47;;;1.75;;
8978;SDS011;4524;51.364;5.448;2024-02-16T01:48:17;3.72;;;2.08;;
8978;SDS011;4524;51.364;5.448;2024-02-16T01:50:46;4.40;;;2.17;;
8978;SDS011;4524;51.364;5.448;2024-02-16T01:53:16;4.50;;;1.88;;
8978;SDS011;4524;51.364;5.448;2024-02-16T01:55:47;3.95;;;1.60;;
8978;SDS011;4524;51.364;5.448;2024-02-16T01:58:15;3.78;;;1.90;;
8978;SDS011;4524;51.364;5.448;2024-02-16T02:00:43;4.28;;;1.95;;
8978;SDS011;4524;51.364;5.448;2024-02-16T02:03:11;4.70;;;2.15;;
8978;SDS011;4524;51.364;5.448;2024-02-16T02:05:45;3.97;;;1.48;;
8978;SDS011;4524;51.364;5.448;2024-02-16T02:08:14;6.25;;;1.92;;
8978;SDS011;4524;51.364;5.448;2024-02-16T02:10:42;4.55;;;1.60;;
8978;SDS011;4524;51.364;5.448;2024-02-16T02:13:12;4.15;;;1.73;;
8978;SDS011;4524;51.364;5.448;2024-02-16T02:15:41;8.52;;;2.00;;
8978;SDS011;4524;51.364;5.448;2024-02-16T02:18:09;4.70;;;1.50;;
8978;SDS011;4524;51.364;5.448;2024-02-16T02:20:37;6.47;;;1.80;;
8978;SDS011;4524;51.364;5.448;2024-02-16T02:23:07;6.80;;;2.53;;
8978;SDS011;4524;51.364;5.448;2024-02-16T02:25:35;5.65;;;1.58;;
8978;SDS011;4524;51.364;5.448;2024-02-16T02:28:03;3.17;;;1.73;;
8978;SDS011;4524;51.364;5.448;2024-02-16T02:33:00;5.18;;;1.60;;
8978;SDS011;4524;51.364;5.448;2024-02-16T02:35:28;3.20;;;1.70;;
8978;SDS011;4524;51.364;5.448;2024-02-16T02:37:56;6.03;;;2.10;;
8978;SDS011;4524;51.364;5.448;2024-02-16T02:40:25;4.00;;;2.25;;
8978;SDS011;4524;51.364;5.448;2024-02-16T02:42:53;6.93;;;2.08;;
8978;SDS011;4524;51.364;5.448;2024-02-16T02:45:21;3.38;;;1.73;;
8978;SDS011;4524;51.364;5.448;2024-02-16T02:47:51;6.00;;;1.90;;
8978;SDS011;4524;51.364;5.448;2024-02-16T02:50:19;4.03;;;1.65;;
8978;SDS011;4524;51.364;5.448;2024-02-16T02:52:47;3.45;;;1.73;;
8978;SDS011;4524;51.364;5.448;2024-02-16T02:55:15;3.28;;;1.80;;
8978;SDS011;4524;51.364;5.448;2024-02-16T02:57:45;4.05;;;1.55;;
8978;SDS011;4524;51.364;5.448;2024-02-16T03:00:13;3.05;;;1.70;;
8978;SDS011;4524;51.364;5.448;2024-02-16T03:02:42;5.35;;;2.15;;
8978;SDS011;4524;51.364;5.448;2024-02-16T03:05:11;5.68;;;1.90;;
8978;SDS011;4524;51.364;5.448;2024-02-16T03:07:39;3.63;;;2.00;;
8978;SDS011;4524;51.364;5.448;2024-02-16T03:10:07;8.02;;;2.10;;
8978;SDS011;4524;51.364;5.448;2024-02-16T03:12:37;5.15;;;1.73;;
8978;SDS011;4524;51.364;5.448;2024-02-16T03:15:07;3.47;;;1.90;;
8978;SDS011;4524;51.364;5.448;2024-02-16T03:17:36;3.60;;;1.70;;
8978;SDS011;4524;51.364;5.448;2024-02-16T03:20:04;4.03;;;2.03;;
8978;SDS011;4524;51.364;5.448;2024-02-16T03:22:34;3.78;;;2.22;;
8978;SDS011;4524;51.364;5.448;2024-02-16T03:25:02;7.03;;;1.77;;
8978;SDS011;4524;51.364;5.448;2024-02-16T03:27:31;4.47;;;2.13;;
8978;SDS011;4524;51.364;5.448;2024-02-16T03:30:00;4.18;;;1.90;;
8978;SDS011;4524;51.364;5.448;2024-02-16T03:32:31;3.17;;;1.50;;
8978;SDS011;4524;51.364;5.448;2024-02-16T03:34:59;3.90;;;1.40;;
8978;SDS011;4524;51.364;5.448;2024-02-16T03:37:27;7.15;;;1.60;;
8978;SDS011;4524;51.364;5.448;2024-02-16T03:39:56;3.95;;;1.52;;
8978;SDS011;4524;51.364;5.448;2024-02-16T03:42:24;4.10;;;1.70;;
8978;SDS011;4524;51.364;5.448;2024-02-16T03:44:52;5.18;;;2.03;;
8978;SDS011;4524;51.364;5.448;2024-02-16T03:47:20;4.60;;;1.70;;
8978;SDS011;4524;51.364;5.448;2024-02-16T03:49:49;5.43;;;1.50;;
8978;SDS011;4524;51.364;5.448;2024-02-16T03:52:18;4.40;;;2.20;;
8978;SDS011;4524;51.364;5.448;2024-02-16T03:54:46;7.38;;;2.15;;
8978;SDS011;4524;51.364;5.448;2024-02-16T03:57:15;6.57;;;1.70;;
8978;SDS011;4524;51.364;5.448;2024-02-16T03:59:43;4.13;;;1.48;;
8978;SDS011;4524;51.364;5.448;2024-02-16T04:02:12;4.32;;;1.60;;
8978;SDS011;4524;51.364;5.448;2024-02-16T04:04:40;4.75;;;1.48;;
8978;SDS011;4524;51.364;5.448;2024-02-16T04:07:10;2.85;;;1.83;;
8978;SDS011;4524;51.364;5.448;2024-02-16T04:09:38;5.75;;;1.90;;
8978;SDS011;4524;51.364;5.448;2024-02-16T04:12:06;4.18;;;1.75;;
8978;SDS011;4524;51.364;5.448;2024-02-16T04:14:35;5.07;;;1.80;;
8978;SDS011;4524;51.364;5.448;2024-02-16T04:17:03;3.38;;;1.73;;
8978;SDS011;4524;51.364;5.448;2024-02-16T04:19:32;2.70;;;1.63;;
8978;SDS011;4524;51.364;5.448;2024-02-16T04:22:00;3.33;;;1.90;;
8978;SDS011;4524;51.364;5.448;2024-02-16T04:24:31;5.95;;;2.38;;
8978;SDS011;4524;51.364;5.448;2024-02-16T04:26:59;4.70;;;1.75;;
8978;SDS011;4524;51.364;5.448;2024-02-16T04:29:29;3.08;;;1.70;;
8978;SDS011;4524;51.364;5.448;2024-02-16T04:31:58;6.20;;;1.75;;
8978;SDS011;4524;51.364;5.448;2024-02-16T04:34:26;4.45;;;2.10;;
8978;SDS011;4524;51.364;5.448;2024-02-16T04:36:55;3.90;;;1.73;;
8978;SDS011;4524;51.364;5.448;2024-02-16T04:39:23;4.00;;;1.90;;
8978;SDS011;4524;51.364;5.448;2024-02-16T04:41:52;3.22;;;1.52;;
8978;SDS011;4524;51.364;5.448;2024-02-16T04:44:21;8.23;;;2.20;;
8978;SDS011;4524;51.364;5.448;2024-02-16T04:46:50;3.95;;;1.55;;
8978;SDS011;4524;51.364;5.448;2024-02-16T04:49:18;6.03;;;1.92;;
8978;SDS011;4524;51.364;5.448;2024-02-16T04:51:48;4.30;;;2.13;;
8978;SDS011;4524;51.364;5.448;2024-02-16T04:54:16;4.63;;;2.13;;
8978;SDS011;4524;51.364;5.448;2024-02-16T04:56:44;3.72;;;1.80;;
8978;SDS011;4524;51.364;5.448;2024-02-16T04:59:14;5.28;;;2.03;;
8978;SDS011;4524;51.364;5.448;2024-02-16T05:01:42;4.80;;;2.13;;
8978;SDS011;4524;51.364;5.448;2024-02-16T05:04:11;4.35;;;1.75;;
8978;SDS011;4524;51.364;5.448;2024-02-16T05:06:40;3.63;;;1.85;;
8978;SDS011;4524;51.364;5.448;2024-02-16T05:09:08;8.60;;;2.60;;
8978;SDS011;4524;51.364;5.448;2024-02-16T05:11:36;4.82;;;1.83;;
8978;SDS011;4524;51.364;5.448;2024-02-16T05:14:04;7.43;;;1.90;;
8978;SDS011;4524;51.364;5.448;2024-02-16T05:16:34;4.40;;;1.75;;
8978;SDS011;4524;51.364;5.448;2024-02-16T05:19:03;9.77;;;1.70;;
8978;SDS011;4524;51.364;5.448;2024-02-16T05:21:31;6.68;;;1.80;;
8978;SDS011;4524;51.364;5.448;2024-02-16T05:24:00;4.38;;;1.95;;
8978;SDS011;4524;51.364;5.448;2024-02-16T05:26:29;5.55;;;2.05;;
8978;SDS011;4524;51.364;5.448;2024-02-16T05:28:57;3.55;;;1.63;;
8978;SDS011;4524;51.364;5.448;2024-02-16T05:31:24;5.25;;;1.80;;
8978;SDS011;4524;51.364;5.448;2024-02-16T05:33:54;5.78;;;2.08;;
8978;SDS011;4524;51.364;5.448;2024-02-16T05:36:22;6.53;;;1.90;;
8978;SDS011;4524;51.364;5.448;2024-02-16T05:38:53;4.07;;;1.73;;
8978;SDS011;4524;51.364;5.448;2024-02-16T05:41:22;3.30;;;1.67;;
8978;SDS011;4524;51.364;5.448;2024-02-16T05:43:50;10.40;;;1.83;;
8978;SDS011;4524;51.364;5.448;2024-02-16T05:46:18;3.35;;;1.80;;
8978;SDS011;4524;51.364;5.448;2024-02-16T05:48:47;3.72;;;1.92;;
8978;SDS011;4524;51.364;5.448;2024-02-16T05:53:45;3.35;;;1.70;;
8978;SDS011;4524;51.364;5.448;2024-02-16T05:56:13;4.50;;;1.60;;
8978;SDS011;4524;51.364;5.448;2024-02-16T05:58:41;4.88;;;1.77;;
8978;SDS011;4524;51.364;5.448;2024-02-16T06:01:10;5.15;;;2.15;;
8978;SDS011;4524;51.364;5.448;2024-02-16T06:03:40;7.32;;;3.13;;
8978;SDS011;4524;51.364;5.448;2024-02-16T06:06:09;3.28;;;1.90;;
8978;SDS011;4524;51.364;5.448;2024-02-16T06:08:39;4.22;;;2.00;;
8978;SDS011;4524;51.364;5.448;2024-02-16T06:11:07;3.70;;;1.70;;
8978;SDS011;4524;51.364;5.448;2024-02-16T06:13:36;4.65;;;1.98;;
8978;SDS011;4524;51.364;5.448;2024-02-16T06:16:04;3.80;;;1.40;;
8978;SDS011;4524;51.364;5.448;2024-02-16T06:18:34;4.35;;;1.80;;
8978;SDS011;4524;51.364;5.448;2024-02-16T06:23:31;5.78;;;1.60;;
8978;SDS011;4524;51.364;5.448;2024-02-16T06:26:01;3.45;;;1.77;;
8978;SDS011;4524;51.364;5.448;2024-02-16T06:28:29;3.83;;;1.85;;
8978;SDS011;4524;51.364;5.448;2024-02-16T06:30:57;4.45;;;2.20;;
8978;SDS011;4524;51.364;5.448;2024-02-16T06:33:25;8.50;;;1.63;;
8978;SDS011;4524;51.364;5.448;2024-02-16T06:35:54;6.07;;;1.98;;
8978;SDS011;4524;51.364;5.448;2024-02-16T06:38:22;6.18;;;2.38;;
8978;SDS011;4524;51.364;5.448;2024-02-16T06:40:50;3.50;;;2.10;;
8978;SDS011;4524;51.364;5.448;2024-02-16T06:43:19;5.60;;;2.28;;
8978;SDS011;4524;51.364;5.448;2024-02-16T06:45:47;3.53;;;1.75;;
8978;SDS011;4524;51.364;5.448;2024-02-16T06:48:16;4.28;;;2.05;;
8978;SDS011;4524;51.364;5.448;2024-02-16T06:50:44;5.78;;;2.42;;
8978;SDS011;4524;51.364;5.448;2024-02-16T06:53:13;7.05;;;2.08;;
8978;SDS011;4524;51.364;5.448;2024-02-16T06:55:41;4.35;;;2.13;;
8978;SDS011;4524;51.364;5.448;2024-02-16T06:58:09;6.93;;;2.42;;
8978;SDS011;4524;51.364;5.448;2024-02-16T07:00:39;4.43;;;1.98;;
8978;SDS011;4524;51.364;5.448;2024-02-16T07:03:08;5.15;;;2.33;;
8978;SDS011;4524;51.364;5.448;2024-02-16T07:05:36;4.45;;;2.13;;
8978;SDS011;4524;51.364;5.448;2024-02-16T07:08:06;6.15;;;1.73;;
8978;SDS011;4524;51.364;5.448;2024-02-16T07:10:34;4.43;;;1.95;;
8978;SDS011;4524;51.364;5.448;2024-02-16T07:13:02;5.38;;;2.70;;
8978;SDS011;4524;51.364;5.448;2024-02-16T07:15:31;6.80;;;3.03;;
8978;SDS011;4524;51.364;5.448;2024-02-16T07:18:00;4.95;;;2.13;;
8978;SDS011;4524;51.364;5.448;2024-02-16T07:20:30;4.68;;;2.22;;
8978;SDS011;4524;51.364;5.448;2024-02-16T07:22:58;5.47;;;2.88;;
8978;SDS011;4524;51.364;5.448;2024-02-16T07:25:27;4.78;;;2.05;;
8978;SDS011;4524;51.364;5.448;2024-02-16T07:27:55;6.28;;;2.67;;
8978;SDS011;4524;51.364;5.448;2024-02-16T07:30:23;10.35;;;3.20;;
8978;SDS011;4524;51.364;5.448;2024-02-16T07:33:04;7.10;;;2.38;;
8978;SDS011;4524;51.364;5.448;2024-02-16T07:35:33;4.15;;;1.63;;
8978;SDS011;4524;51.364;5.448;2024-02-16T07:38:02;6.07;;;2.58;;
8978;SDS011;4524;51.364;5.448;2024-02-16T07:40:30;4.90;;;2.33;;
8978;SDS011;4524;51.364;5.448;2024-02-16T07:42:59;7.45;;;2.00;;
8978;SDS011;4524;51.364;5.448;2024-02-16T07:45:27;8.55;;;2.10;;
8978;SDS011;4524;51.364;5.448;2024-02-16T07:47:55;7.40;;;2.05;;
8978;SDS011;4524;51.364;5.448;2024-02-16T07:50:25;4.75;;;2.17;;
8978;SDS011;4524;51.364;5.448;2024-02-16T07:52:54;5.00;;;2.55;;
8978;SDS011;4524;51.364;5.448;2024-02-16T07:55:22;8.52;;;2.88;;
8978;SDS011;4524;51.364;5.448;2024-02-16T07:57:51;5.75;;;2.50;;
8978;SDS011;4524;51.364;5.448;2024-02-16T08:00:19;3.15;;;1.80;;
8978;SDS011;4524;51.364;5.448;2024-02-16T08:02:47;5.07;;;2.53;;
8978;SDS011;4524;51.364;5.448;2024-02-16T08:05:15;7.75;;;2.00;;
8978;SDS011;4524;51.364;5.448;2024-02-16T08:07:47;7.03;;;2.08;;
8978;SDS011;4524;51.364;5.448;2024-02-16T08:10:18;4.78;;;2.30;;
8978;SDS011;4524;51.364;5.448;2024-02-16T08:12:47;4.70;;;2.25;;
8978;SDS011;4524;51.364;5.448;2024-02-16T08:15:15;4.00;;;2.13;;
8978;SDS011;4524;51.364;5.448;2024-02-16T08:17:49;5.30;;;2.05;;
8978;SDS011;4524;51.364;5.448;2024-02-16T08:20:18;7.82;;;2.45;;
8978;SDS011;4524;51.364;5.448;2024-02-16T08:25:16;3.90;;;2.20;;
8978;SDS011;4524;51.364;5.448;2024-02-16T08:27:44;5.28;;;2.13;;
8978;SDS011;4524;51.364;5.448;2024-02-16T08:30:12;4.47;;;2.45;;
8978;SDS011;4524;51.364;5.448;2024-02-16T08:32:41;5.57;;;2.22;;
8978;SDS011;4524;51.364;5.448;2024-02-16T08:35:09;9.10;;;2.70;;
8978;SDS011;4524;51.364;5.448;2024-02-16T08:37:40;5.65;;;2.10;;
8978;SDS011;4524;51.364;5.448;2024-02-16T08:40:12;6.40;;;2.60;;
8978;SDS011;4524;51.364;5.448;2024-02-16T08:42:41;4.47;;;2.80;;
8978;SDS011;4524;51.364;5.448;2024-02-16T08:45:10;10.27;;;2.53;;
8978;SDS011;4524;51.364;5.448;2024-02-16T08:47:39;8.65;;;2.95;;
8978;SDS011;4524;51.364;5.448;2024-02-16T08:50:07;8.88;;;4.53;;
8978;SDS011;4524;51.364;5.448;2024-02-16T08:52:36;7.20;;;4.07;;
8978;SDS011;4524;51.364;5.448;2024-02-16T08:55:05;5.22;;;3.78;;
8978;SDS011;4524;51.364;5.448;2024-02-16T08:57:35;7.55;;;3.95;;
8978;SDS011;4524;51.364;5.448;2024-02-16T09:00:04;4.45;;;3.15;;
8978;SDS011;4524;51.364;5.448;2024-02-16T09:02:33;5.60;;;4.88;;
8978;SDS011;4524;51.364;5.448;2024-02-16T09:05:02;6.22;;;3.72;;
8978;SDS011;4524;51.364;5.448;2024-02-16T09:07:30;8.25;;;4.55;;
8978;SDS011;4524;51.364;5.448;2024-02-16T09:09:58;31.17;;;28.55;;
8978;SDS011;4524;51.364;5.448;2024-02-16T09:12:26;18.98;;;10.45;;
8978;SDS011;4524;51.364;5.448;2024-02-16T09:14:56;9.32;;;2.90;;
8978;SDS011;4524;51.364;5.448;2024-02-16T09:17:24;35.75;;;26.38;;
8978;SDS011;4524;51.364;5.448;2024-02-16T09:19:53;63.08;;;57.08;;
8978;SDS011;4524;51.364;5.448;2024-02-16T09:22:21;80.25;;;69.43;;
8978;SDS011;4524;51.364;5.448;2024-02-16T09:25:03;30.73;;;27.00;;
8978;SDS011;4524;51.364;5.448;2024-02-16T09:30:01;47.88;;;44.00;;
8978;SDS011;4524;51.364;5.448;2024-02-16T09:32:29;8.35;;;7.18;;
8978;SDS011;4524;51.364;5.448;2024-02-16T09:34:58;22.52;;;20.48;;
8978;SDS011;4524;51.364;5.448;2024-02-16T09:37:26;42.95;;;39.33;;
8978;SDS011;4524;51.364;5.448;2024-02-16T09:39:54;109.93;;;77.50;;
8978;SDS011;4524;51.364;5.448;2024-02-16T09:42:22;88.22;;;70.72;;
8978;SDS011;4524;51.364;5.448;2024-02-16T09:44:52;66.10;;;58.75;;
8978;SDS011;4524;51.364;5.448;2024-02-16T09:47:23;29.15;;;26.05;;
8978;SDS011;4524;51.364;5.448;2024-02-16T09:49:55;10.40;;;4.22;;
8978;SDS011;4524;51.364;5.448;2024-02-16T09:52:23;9.02;;;3.35;;
8978;SDS011;4524;51.364;5.448;2024-02-16T09:54:52;16.92;;;10.50;;
8978;SDS011;4524;51.364;5.448;2024-02-16T09:57:20;27.33;;;24.98;;
8978;SDS011;4524;51.364;5.448;2024-02-16T09:59:47;6.43;;;3.17;;
8978;SDS011;4524;51.364;5.448;2024-02-16T10:02:15;9.75;;;8.23;;
8978;SDS011;4524;51.364;5.448;2024-02-16T10:04:44;16.92;;;15.30;;
8978;SDS011;4524;51.364;5.448;2024-02-16T10:07:13;10.10;;;9.05;;
8978;SDS011;4524;51.364;5.448;2024-02-16T10:09:41;12.55;;;8.27;;
8978;SDS011;4524;51.364;5.448;2024-02-16T10:12:09;16.10;;;14.65;;
8978;SDS011;4524;51.364;5.448;2024-02-16T10:14:38;32.45;;;29.92;;
8978;SDS011;4524;51.364;5.448;2024-02-16T10:17:07;21.73;;;19.33;;
8978;SDS011;4524;51.364;5.448;2024-02-16T10:19:36;117.25;;;73.53;;
8978;SDS011;4524;51.364;5.448;2024-02-16T10:22:09;7.80;;;5.95;;
8978;SDS011;4524;51.364;5.448;2024-02-16T10:24:39;11.57;;;4.78;;
8978;SDS011;4524;51.364;5.448;2024-02-16T10:27:13;9.73;;;4.28;;
8978;SDS011;4524;51.364;5.448;2024-02-16T10:29:44;7.30;;;5.60;;
8978;SDS011;4524;51.364;5.448;2024-02-16T10:32:16;15.20;;;12.52;;
8978;SDS011;4524;51.364;5.448;2024-02-16T10:34:45;10.00;;;4.38;;
8978;SDS011;4524;51.364;5.448;2024-02-16T10:37:17;7.35;;;4.70;;
8978;SDS011;4524;51.364;5.448;2024-02-16T10:39:46;11.40;;;5.25;;
8978;SDS011;4524;51.364;5.448;2024-02-16T10:42:15;6.88;;;4.25;;
8978;SDS011;4524;51.364;5.448;2024-02-16T10:44:46;7.88;;;5.43;;
8978;SDS011;4524;51.364;5.448;2024-02-16T10:47:15;7.90;;;4.82;;
8978;SDS011;4524;51.364;5.448;2024-02-16T10:49:43;9.80;;;5.50;;
8978;SDS011;4524;51.364;5.448;2024-02-16T10:52:12;9.43;;;6.47;;
8978;SDS011;4524;51.364;5.448;2024-02-16T10:54:43;8.20;;;3.72;;
8978;SDS011;4524;51.364;5.448;2024-02-16T10:57:11;29.90;;;26.67;;
8978;SDS011;4524;51.364;5.448;2024-02-16T10:59:42;10.00;;;7.53;;
8978;SDS011;4524;51.364;5.448;2024-02-16T11:02:12;9.02;;;4.97;;
8978;SDS011;4524;51.364;5.448;2024-02-16T11:04:40;9.50;;;4.22;;
8978;SDS011;4524;51.364;5.448;2024-02-16T11:07:14;6.10;;;3.72;;
8978;SDS011;4524;51.364;5.448;2024-02-16T11:09:46;9.70;;;4.22;;
8978;SDS011;4524;51.364;5.448;2024-02-16T11:12:15;6.60;;;4.10;;
8978;SDS011;4524;51.364;5.448;2024-02-16T11:14:43;6.68;;;3.65;;
8978;SDS011;4524;51.364;5.448;2024-02-16T11:17:14;12.13;;;4.90;;
8978;SDS011;4524;51.364;5.448;2024-02-16T11:19:47;7.20;;;3.97;;
8978;SDS011;4524;51.364;5.448;2024-02-16T11:22:16;19.33;;;17.55;;
8978;SDS011;4524;51.364;5.448;2024-02-16T11:24:48;14.10;;;6.20;;
8978;SDS011;4524;51.364;5.448;2024-02-16T11:27:17;8.40;;;3.65;;
8978;SDS011;4524;51.364;5.448;2024-02-16T11:29:47;14.50;;;4.40;;
8978;SDS011;4524;51.364;5.448;2024-02-16T11:32:17;9.05;;;3.78;;
8978;SDS011;4524;51.364;5.448;2024-02-16T11:34:46;10.52;;;4.28;;
8978;SDS011;4524;51.364;5.448;2024-02-16T11:37:14;11.48;;;3.88;;
8978;SDS011;4524;51.364;5.448;2024-02-16T11:39:44;8.85;;;4.03;;
8978;SDS011;4524;51.364;5.448;2024-02-16T11:42:19;6.88;;;3.80;;
8978;SDS011;4524;51.364;5.448;2024-02-16T11:44:50;8.38;;;4.25;;
8978;SDS011;4524;51.364;5.448;2024-02-16T11:47:20;7.07;;;3.63;;
8978;SDS011;4524;51.364;5.448;2024-02-16T11:49:59;11.25;;;4.20;;
8978;SDS011;4524;51.364;5.448;2024-02-16T11:52:29;8.27;;;4.13;;
8978;SDS011;4524;51.364;5.448;2024-02-16T11:54:57;7.97;;;3.83;;
8978;SDS011;4524;51.364;5.448;2024-02-16T11:57:29;12.77;;;4.30;;
8978;SDS011;4524;51.364;5.448;2024-02-16T11:59:58;8.93;;;4.28;;
8978;SDS011;4524;51.364;5.448;2024-02-16T12:02:46;12.02;;;5.03;;
8978;SDS011;4524;51.364;5.448;2024-02-16T12:05:14;11.65;;;5.45;;
8978;SDS011;4524;51.364;5.448;2024-02-16T12:07:42;15.80;;;6.75;;
8978;SDS011;4524;51.364;5.448;2024-02-16T12:10:11;11.98;;;7.78;;
8978;SDS011;4524;51.364;5.448;2024-02-16T12:12:40;12.63;;;5.00;;
8978;SDS011;4524;51.364;5.448;2024-02-16T12:15:10;10.52;;;5.10;;
8978;SDS011;4524;51.364;5.448;2024-02-16T12:17:40;8.15;;;6.22;;
8978;SDS011;4524;51.364;5.448;2024-02-16T12:20:10;12.32;;;7.97;;
8978;SDS011;4524;51.364;5.448;2024-02-16T12:22:40;108.22;;;77.88;;
8978;SDS011;4524;51.364;5.448;2024-02-16T12:25:08;87.60;;;69.25;;
8978;SDS011;4524;51.364;5.448;2024-02-16T12:27:36;7.93;;;4.28;;
8978;SDS011;4524;51.364;5.448;2024-02-16T12:30:06;8.18;;;4.13;;
8978;SDS011;4524;51.364;5.448;2024-02-16T12:32:35;7.78;;;4.00;;
8978;SDS011;4524;51.364;5.448;2024-02-16T12:35:03;10.82;;;5.25;;
8978;SDS011;4524;51.364;5.448;2024-02-16T12:37:32;8.40;;;4.43;;
8978;SDS011;4524;51.364;5.448;2024-02-16T12:40:01;10.00;;;3.85;;
8978;SDS011;4524;51.364;5.448;2024-02-16T12:42:29;8.35;;;3.42;;
8978;SDS011;4524;51.364;5.448;2024-02-16T12:44:57;14.07;;;4.97;;
8978;SDS011;4524;51.364;5.448;2024-02-16T12:47:27;8.32;;;4.82;;
8978;SDS011;4524;51.364;5.448;2024-02-16T12:49:55;10.32;;;5.18;;
8978;SDS011;4524;51.364;5.448;2024-02-16T12:52:25;15.57;;;5.80;;
8978;SDS011;4524;51.364;5.448;2024-02-16T12:54:53;11.85;;;5.85;;
8978;SDS011;4524;51.364;5.448;2024-02-16T12:57:21;11.45;;;5.57;;
8978;SDS011;4524;51.364;5.448;2024-02-16T12:59:49;9.25;;;6.00;;
8978;SDS011;4524;51.364;5.448;2024-02-16T13:02:17;8.63;;;5.40;;
8978;SDS011;4524;51.364;5.448;2024-02-16T13:04:47;8.25;;;5.03;;
8978;SDS011;4524;51.364;5.448;2024-02-16T13:07:15;14.27;;;5.97;;
8978;SDS011;4524;51.364;5.448;2024-02-16T13:09:43;7.43;;;5.30;;
8978;SDS011;4524;51.364;5.448;2024-02-16T13:12:12;9.52;;;5.50;;
8978;SDS011;4524;51.364;5.448;2024-02-16T13:14:43;8.18;;;5.35;;
8978;SDS011;4524;51.364;5.448;2024-02-16T13:17:11;8.55;;;6.05;;
8978;SDS011;4524;51.364;5.448;2024-02-16T13:19:39;12.77;;;5.38;;
8978;SDS011;4524;51.364;5.448;2024-02-16T13:22:09;7.65;;;5.95;;
8978;SDS011;4524;51.364;5.448;2024-02-16T13:24:37;8.48;;;5.25;;
8978;SDS011;4524;51.364;5.448;2024-02-16T13:27:05;10.88;;;6.55;;
8978;SDS011;4524;51.364;5.448;2024-02-16T13:29:34;8.57;;;5.32;;
8978;SDS011;4524;51.364;5.448;2024-02-16T13:32:03;8.63;;;5.47;;
8978;SDS011;4524;51.364;5.448;2024-02-16T13:34:32;9.25;;;5.57;;
8978;SDS011;4524;51.364;5.448;2024-02-16T13:37:00;5.35;;;4.05;;
8978;SDS011;4524;51.364;5.448;2024-02-16T13:39:29;6.30;;;5.03;;
8978;SDS011;4524;51.364;5.448;2024-02-16T13:41:57;7.63;;;5.05;;
8978;SDS011;4524;51.364;5.448;2024-02-16T13:44:25;4.80;;;3.30;;
8978;SDS011;4524;51.364;5.448;2024-02-16T13:46:53;4.03;;;2.30;;
8978;SDS011;4524;51.364;5.448;2024-02-16T13:49:21;4.53;;;2.88;;
8978;SDS011;4524;51.364;5.448;2024-02-16T13:51:49;6.50;;;3.80;;
8978;SDS011;4524;51.364;5.448;2024-02-16T13:54:17;8.00;;;3.88;;
8978;SDS011;4524;51.364;5.448;2024-02-16T13:56:49;4.47;;;3.45;;
8978;SDS011;4524;51.364;5.448;2024-02-16T13:59:16;5.85;;;3.50;;
8978;SDS011;4524;51.364;5.448;2024-02-16T14:01:45;4.97;;;3.30;;
8978;SDS011;4524;51.364;5.448;2024-02-16T14:04:14;4.68;;;2.88;;
8978;SDS011;4524;51.364;5.448;2024-02-16T14:06:42;7.10;;;2.80;;
8978;SDS011;4524;51.364;5.448;2024-02-16T14:09:11;6.18;;;2.90;;
8978;SDS011;4524;51.364;5.448;2024-02-16T14:11:53;4.25;;;2.85;;
8978;SDS011;4524;51.364;5.448;2024-02-16T14:14:25;5.28;;;3.15;;
8978;SDS011;4524;51.364;5.448;2024-02-16T14:17:03;4.93;;;2.83;;
8978;SDS011;4524;51.364;5.448;2024-02-16T14:19:31;6.22;;;2.97;;
8978;SDS011;4524;51.364;5.448;2024-02-16T14:22:03;7.50;;;3.38;;
8978;SDS011;4524;51.364;5.448;2024-02-16T14:24:33;5.05;;;2.90;;
8978;SDS011;4524;51.364;5.448;2024-02-16T14:27:02;4.30;;;2.95;;
8978;SDS011;4524;51.364;5.448;2024-02-16T14:29:31;5.50;;;3.25;;
8978;SDS011;4524;51.364;5.448;2024-02-16T14:31:59;5.20;;;3.15;;
8978;SDS011;4524;51.364;5.448;2024-02-16T14:34:27;4.88;;;3.15;;
8978;SDS011;4524;51.364;5.448;2024-02-16T14:36:56;4.30;;;3.03;;
8978;SDS011;4524;51.364;5.448;2024-02-16T14:39:23;5.40;;;2.85;;
8978;SDS011;4524;51.364;5.448;2024-02-16T14:41:52;4.90;;;3.45;;
8978;SDS011;4524;51.364;5.448;2024-02-16T14:44:21;5.30;;;3.25;;
8978;SDS011;4524;51.364;5.448;2024-02-16T14:46:49;6.05;;;3.17;;
8978;SDS011;4524;51.364;5.448;2024-02-16T14:49:17;5.75;;;3.90;;
8978;SDS011;4524;51.364;5.448;2024-02-16T14:51:48;4.93;;;2.83;;
8978;SDS011;4524;51.364;5.448;2024-02-16T14:54:17;5.65;;;3.10;;
8978;SDS011;4524;51.364;5.448;2024-02-16T14:56:45;5.60;;;3.25;;
8978;SDS011;4524;51.364;5.448;2024-02-16T14:59:14;4.68;;;2.97;;
8978;SDS011;4524;51.364;5.448;2024-02-16T15:01:43;6.15;;;3.00;;
8978;SDS011;4524;51.364;5.448;2024-02-16T15:04:12;4.68;;;3.05;;
8978;SDS011;4524;51.364;5.448;2024-02-16T15:06:42;6.70;;;2.70;;
8978;SDS011;4524;51.364;5.448;2024-02-16T15:09:10;5.68;;;2.35;;
8978;SDS011;4524;51.364;5.448;2024-02-16T15:11:38;6.85;;;3.22;;
8978;SDS011;4524;51.364;5.448;2024-02-16T15:14:06;4.43;;;2.10;;
8978;SDS011;4524;51.364;5.448;2024-02-16T15:16:34;4.97;;;3.00;;
8978;SDS011;4524;51.364;5.448;2024-02-16T15:19:03;6.53;;;2.70;;
8978;SDS011;4524;51.364;5.448;2024-02-16T15:21:31;3.85;;;2.60;;
8978;SDS011;4524;51.364;5.448;2024-02-16T15:23:59;4.88;;;3.22;;
8978;SDS011;4524;51.364;5.448;2024-02-16T15:26:27;4.25;;;2.55;;
8978;SDS011;4524;51.364;5.448;2024-02-16T15:28:55;6.53;;;2.60;;
8978;SDS011;4524;51.364;5.448;2024-02-16T15:31:23;4.68;;;2.63;;
8978;SDS011;4524;51.364;5.448;2024-02-16T15:33:51;4.50;;;2.58;;
8978;SDS011;4524;51.364;5.448;2024-02-16T15:36:21;3.78;;;2.33;;